sensor_id;sensor_type;location;lat;lon;timestamp;pressure;altitude;pressure_sealevel;temperature;humidity
64872;BME280;51351;51.450;6.614;2023-08-08T00:01:37;101310.28;;;14.11;75.21
64872;BME280;51351;51.450;6.614;2023-08-08T00:04:03;101308.66;;;14.10;75.38
64872;BME280;51351;51.450;6.614;2023-08-08T00:06:29;101312.25;;;14.09;75.26
64872;BME280;51351;51.450;6.614;2023-08-08T00:08:55;101304.66;;;14.06;75.20
64872;BME280;51351;51.450;6.614;2023-08-08T00:11:21;101307.72;;;14.02;75.33
64872;BME280;51351;51.450;6.614;2023-08-08T00:13:47;101304.41;;;14.00;75.33
64872;BME280;51351;51.450;6.614;2023-08-08T00:16:13;101301.25;;;13.96;75.57
64872;BME280;51351;51.450;6.614;2023-08-08T00:18:39;101303.31;;;13.93;75.42
64872;BME280;51351;51.450;6.614;2023-08-08T00:21:05;101303.63;;;13.90;75.39
64872;BME280;51351;51.450;6.614;2023-08-08T00:23:31;101302.94;;;13.88;75.48
64872;BME280;51351;51.450;6.614;2023-08-08T00:25:57;101298.66;;;13.87;75.42
64872;BME280;51351;51.450;6.614;2023-08-08T00:28:23;101305.72;;;13.86;75.53
64872;BME280;51351;51.450;6.614;2023-08-08T00:30:49;101305.72;;;13.86;75.50
64872;BME280;51351;51.450;6.614;2023-08-08T00:33:15;101304.88;;;13.86;75.84
64872;BME280;51351;51.450;6.614;2023-08-08T00:35:42;101301.28;;;13.87;75.47
64872;BME280;51351;51.450;6.614;2023-08-08T00:38:08;101299.50;;;13.87;75.67
64872;BME280;51351;51.450;6.614;2023-08-08T00:40:35;101303.25;;;13.85;75.58
64872;BME280;51351;51.450;6.614;2023-08-08T00:43:01;101309.16;;;13.87;75.35
64872;BME280;51351;51.450;6.614;2023-08-08T00:45:28;101308.19;;;13.88;75.62
64872;BME280;51351;51.450;6.614;2023-08-08T00:47:54;101302.81;;;13.89;75.66
64872;BME280;51351;51.450;6.614;2023-08-08T00:50:20;101296.72;;;13.89;75.49
64872;BME280;51351;51.450;6.614;2023-08-08T00:52:47;101299.19;;;13.90;75.42
64872;BME280;51351;51.450;6.614;2023-08-08T00:55:15;101299.19;;;13.90;75.38
64872;BME280;51351;51.450;6.614;2023-08-08T00:57:43;101296.56;;;13.90;75.43
64872;BME280;51351;51.450;6.614;2023-08-08T01:00:09;101289.69;;;13.89;75.41
64872;BME280;51351;51.450;6.614;2023-08-08T01:02:36;101301.00;;;13.90;75.52
64872;BME280;51351;51.450;6.614;2023-08-08T01:05:02;101289.53;;;13.91;75.31
64872;BME280;51351;51.450;6.614;2023-08-08T01:10:18;101299.78;;;13.84;75.93
64872;BME280;51351;51.450;6.614;2023-08-08T01:12:50;101299.25;;;13.81;75.73
64872;BME280;51351;51.450;6.614;2023-08-08T01:15:18;101291.94;;;13.75;75.51
64872;BME280;51351;51.450;6.614;2023-08-08T01:17:45;101290.88;;;13.68;75.99
64872;BME280;51351;51.450;6.614;2023-08-08T01:20:13;101298.03;;;13.66;76.13
64872;BME280;51351;51.450;6.614;2023-08-08T01:25:21;101286.88;;;13.64;76.32
64872;BME280;51351;51.450;6.614;2023-08-08T01:27:47;101288.38;;;13.66;76.18
64872;BME280;51351;51.450;6.614;2023-08-08T01:30:13;101286.41;;;13.68;76.05
64872;BME280;51351;51.450;6.614;2023-08-08T01:32:40;101278.41;;;13.70;76.34
64872;BME280;51351;51.450;6.614;2023-08-08T01:35:07;101280.06;;;13.71;76.37
64872;BME280;51351;51.450;6.614;2023-08-08T01:37:48;101276.19;;;13.75;76.59
64872;BME280;51351;51.450;6.614;2023-08-08T01:40:16;101269.66;;;13.79;76.21
64872;BME280;51351;51.450;6.614;2023-08-08T01:42:47;101265.78;;;13.83;76.11
64872;BME280;51351;51.450;6.614;2023-08-08T01:45:15;101274.22;;;13.86;76.00
64872;BME280;51351;51.450;6.614;2023-08-08T01:47:41;101267.97;;;13.87;76.19
64872;BME280;51351;51.450;6.614;2023-08-08T01:50:08;101266.03;;;13.89;76.14
64872;BME280;51351;51.450;6.614;2023-08-08T01:52:35;101268.53;;;13.91;76.06
64872;BME280;51351;51.450;6.614;2023-08-08T01:55:03;101265.19;;;13.89;75.67
64872;BME280;51351;51.450;6.614;2023-08-08T01:57:29;101261.75;;;13.88;75.99
64872;BME280;51351;51.450;6.614;2023-08-08T01:59:55;101253.84;;;13.88;76.24
64872;BME280;51351;51.450;6.614;2023-08-08T02:02:21;101253.06;;;13.88;76.04
64872;BME280;51351;51.450;6.614;2023-08-08T02:04:47;101254.84;;;13.87;76.21
64872;BME280;51351;51.450;6.614;2023-08-08T02:07:13;101255.53;;;13.89;76.25
64872;BME280;51351;51.450;6.614;2023-08-08T02:09:39;101251.22;;;13.88;76.57
64872;BME280;51351;51.450;6.614;2023-08-08T02:12:06;101244.88;;;13.91;76.10
64872;BME280;51351;51.450;6.614;2023-08-08T02:14:32;101243.75;;;13.93;76.49
64872;BME280;51351;51.450;6.614;2023-08-08T02:16:58;101245.41;;;13.94;76.35
64872;BME280;51351;51.450;6.614;2023-08-08T02:19:24;101240.16;;;13.94;76.27
64872;BME280;51351;51.450;6.614;2023-08-08T02:21:50;101235.75;;;13.95;76.11
64872;BME280;51351;51.450;6.614;2023-08-08T02:24:18;101248.03;;;13.94;76.13
64872;BME280;51351;51.450;6.614;2023-08-08T02:26:44;101247.22;;;13.94;76.45
64872;BME280;51351;51.450;6.614;2023-08-08T02:29:10;101234.91;;;13.94;76.46
64872;BME280;51351;51.450;6.614;2023-08-08T02:31:36;101247.22;;;13.94;76.29
64872;BME280;51351;51.450;6.614;2023-08-08T02:34:02;101240.00;;;13.96;76.16
64872;BME280;51351;51.450;6.614;2023-08-08T02:36:28;101245.13;;;13.97;76.19
64872;BME280;51351;51.450;6.614;2023-08-08T02:38:54;101232.97;;;13.96;76.27
64872;BME280;51351;51.450;6.614;2023-08-08T02:41:20;101248.56;;;13.98;76.27
64872;BME280;51351;51.450;6.614;2023-08-08T02:43:46;101241.81;;;13.95;76.61
64872;BME280;51351;51.450;6.614;2023-08-08T02:46:12;101235.03;;;13.93;76.43
64872;BME280;51351;51.450;6.614;2023-08-08T02:48:39;101230.69;;;13.84;77.97
64872;BME280;51351;51.450;6.614;2023-08-08T02:51:05;101234.56;;;13.80;77.92
64872;BME280;51351;51.450;6.614;2023-08-08T02:53:31;101243.84;;;13.74;77.48
64872;BME280;51351;51.450;6.614;2023-08-08T02:55:57;101238.06;;;13.71;78.06
64872;BME280;51351;51.450;6.614;2023-08-08T02:58:27;101235.88;;;13.66;78.46
64872;BME280;51351;51.450;6.614;2023-08-08T03:00:53;101237.66;;;13.66;78.62
64872;BME280;51351;51.450;6.614;2023-08-08T03:03:19;101239.31;;;13.67;78.27
64872;BME280;51351;51.450;6.614;2023-08-08T03:05:46;101242.91;;;13.66;78.08
64872;BME280;51351;51.450;6.614;2023-08-08T03:08:14;101237.00;;;13.64;78.42
64872;BME280;51351;51.450;6.614;2023-08-08T03:10:40;101236.44;;;13.60;78.92
64872;BME280;51351;51.450;6.614;2023-08-08T03:13:07;101230.50;;;13.58;78.78
64872;BME280;51351;51.450;6.614;2023-08-08T03:15:33;101218.50;;;13.56;80.85
64872;BME280;51351;51.450;6.614;2023-08-08T03:18:02;101221.56;;;13.51;79.49
64872;BME280;51351;51.450;6.614;2023-08-08T03:20:29;101235.66;;;13.50;79.53
64872;BME280;51351;51.450;6.614;2023-08-08T03:22:55;101216.59;;;13.48;80.27
64872;BME280;51351;51.450;6.614;2023-08-08T03:25:21;101225.44;;;13.47;80.73
64872;BME280;51351;51.450;6.614;2023-08-08T03:27:47;101224.75;;;13.45;80.46
64872;BME280;51351;51.450;6.614;2023-08-08T03:30:14;101214.38;;;13.44;80.92
64872;BME280;51351;51.450;6.614;2023-08-08T03:32:42;101219.94;;;13.41;80.98
64872;BME280;51351;51.450;6.614;2023-08-08T03:35:08;101215.94;;;13.37;81.12
64872;BME280;51351;51.450;6.614;2023-08-08T03:37:36;101222.31;;;13.34;81.14
64872;BME280;51351;51.450;6.614;2023-08-08T03:40:02;101209.59;;;13.30;82.26
64872;BME280;51351;51.450;6.614;2023-08-08T03:42:29;101211.56;;;13.28;81.71
64872;BME280;51351;51.450;6.614;2023-08-08T03:44:56;101218.59;;;13.27;82.24
64872;BME280;51351;51.450;6.614;2023-08-08T03:47:22;101221.22;;;13.27;82.31
64872;BME280;51351;51.450;6.614;2023-08-08T03:49:49;101223.00;;;13.27;81.88
64872;BME280;51351;51.450;6.614;2023-08-08T03:52:15;101217.75;;;13.27;82.02
64872;BME280;51351;51.450;6.614;2023-08-08T03:54:41;101212.50;;;13.27;82.59
64872;BME280;51351;51.450;6.614;2023-08-08T03:57:07;101213.22;;;13.29;82.26
64872;BME280;51351;51.450;6.614;2023-08-08T03:59:33;101206.97;;;13.30;82.80
64872;BME280;51351;51.450;6.614;2023-08-08T04:01:59;101206.19;;;13.29;82.41
64872;BME280;51351;51.450;6.614;2023-08-08T04:04:25;101219.28;;;13.29;82.73
64872;BME280;51351;51.450;6.614;2023-08-08T04:06:51;101209.75;;;13.28;82.43
64872;BME280;51351;51.450;6.614;2023-08-08T04:09:17;101208.81;;;13.29;82.73
64872;BME280;51351;51.450;6.614;2023-08-08T04:11:43;101210.59;;;13.29;83.06
64872;BME280;51351;51.450;6.614;2023-08-08T04:14:09;101209.59;;;13.30;83.25
64872;BME280;51351;51.450;6.614;2023-08-08T04:16:35;101212.22;;;13.30;83.34
64872;BME280;51351;51.450;6.614;2023-08-08T04:19:01;101212.78;;;13.33;83.26
64872;BME280;51351;51.450;6.614;2023-08-08T04:21:29;101202.81;;;13.37;83.12
64872;BME280;51351;51.450;6.614;2023-08-08T04:23:58;101205.59;;;13.35;82.98
64872;BME280;51351;51.450;6.614;2023-08-08T04:26:25;101207.25;;;13.36;83.14
64872;BME280;51351;51.450;6.614;2023-08-08T04:28:52;101200.06;;;13.38;83.29
64872;BME280;51351;51.450;6.614;2023-08-08T04:31:18;101191.88;;;13.41;83.40
64872;BME280;51351;51.450;6.614;2023-08-08T04:33:44;101202.25;;;13.43;83.38
64872;BME280;51351;51.450;6.614;2023-08-08T04:36:10;101202.25;;;13.43;83.47
64872;BME280;51351;51.450;6.614;2023-08-08T04:38:36;101207.50;;;13.43;83.45
64872;BME280;51351;51.450;6.614;2023-08-08T04:41:02;101203.75;;;13.45;83.58
64872;BME280;51351;51.450;6.614;2023-08-08T04:43:28;101202.81;;;13.46;83.61
64872;BME280;51351;51.450;6.614;2023-08-08T04:45:55;101201.81;;;13.47;83.57
64872;BME280;51351;51.450;6.614;2023-08-08T04:48:21;101198.06;;;13.50;83.26
64872;BME280;51351;51.450;6.614;2023-08-08T04:50:47;101209.94;;;13.54;83.26
64872;BME280;51351;51.450;6.614;2023-08-08T04:53:13;101205.66;;;13.53;83.60
64872;BME280;51351;51.450;6.614;2023-08-08T04:55:39;101202.88;;;13.54;83.74
64872;BME280;51351;51.450;6.614;2023-08-08T04:58:05;101198.34;;;13.56;83.83
64872;BME280;51351;51.450;6.614;2023-08-08T05:00:31;101198.84;;;13.60;83.49
64872;BME280;51351;51.450;6.614;2023-08-08T05:02:57;101195.00;;;13.64;84.03
64872;BME280;51351;51.450;6.614;2023-08-08T05:05:23;101192.06;;;13.67;83.94
64872;BME280;51351;51.450;6.614;2023-08-08T05:07:49;101190.97;;;13.69;83.80
64872;BME280;51351;51.450;6.614;2023-08-08T05:10:15;101195.09;;;13.72;83.56
64872;BME280;51351;51.450;6.614;2023-08-08T05:12:41;101195.63;;;13.75;83.70
64872;BME280;51351;51.450;6.614;2023-08-08T05:15:08;101207.63;;;13.78;83.54
64872;BME280;51351;51.450;6.614;2023-08-08T05:17:34;101200.56;;;13.78;84.10
64872;BME280;51351;51.450;6.614;2023-08-08T05:19:59;101205.53;;;13.81;83.72
64872;BME280;51351;51.450;6.614;2023-08-08T05:22:25;101194.72;;;13.84;83.65
64872;BME280;51351;51.450;6.614;2023-08-08T05:24:52;101204.94;;;13.87;83.49
64872;BME280;51351;51.450;6.614;2023-08-08T05:27:18;101203.53;;;13.93;83.47
64872;BME280;51351;51.450;6.614;2023-08-08T05:29:44;101204.59;;;14.00;83.55
64872;BME280;51351;51.450;6.614;2023-08-08T05:32:10;101203.06;;;14.07;83.51
64872;BME280;51351;51.450;6.614;2023-08-08T05:34:36;101191.56;;;14.08;83.30
64872;BME280;51351;51.450;6.614;2023-08-08T05:37:02;101200.09;;;14.10;82.99
64872;BME280;51351;51.450;6.614;2023-08-08T05:39:30;101204.41;;;14.11;83.34
64872;BME280;51351;51.450;6.614;2023-08-08T05:41:56;101207.69;;;14.13;83.11
64872;BME280;51351;51.450;6.614;2023-08-08T05:44:22;101202.28;;;14.14;83.34
64872;BME280;51351;51.450;6.614;2023-08-08T05:46:48;101202.97;;;14.16;83.21
64872;BME280;51351;51.450;6.614;2023-08-08T05:49:15;101190.69;;;14.17;83.10
64872;BME280;51351;51.450;6.614;2023-08-08T05:51:40;101207.09;;;14.19;83.42
64872;BME280;51351;51.450;6.614;2023-08-08T05:54:06;101205.06;;;14.22;83.02
64872;BME280;51351;51.450;6.614;2023-08-08T05:56:36;101202.41;;;14.22;83.02
64872;BME280;51351;51.450;6.614;2023-08-08T05:59:03;101210.31;;;14.22;83.02
64872;BME280;51351;51.450;6.614;2023-08-08T06:01:30;101208.47;;;14.23;82.97
64872;BME280;51351;51.450;6.614;2023-08-08T06:03:56;101216.63;;;14.29;83.17
64872;BME280;51351;51.450;6.614;2023-08-08T06:06:25;101223.06;;;14.35;83.23
64872;BME280;51351;51.450;6.614;2023-08-08T06:08:52;101224.56;;;14.37;83.05
64872;BME280;51351;51.450;6.614;2023-08-08T06:11:18;101227.00;;;14.49;83.11
64872;BME280;51351;51.450;6.614;2023-08-08T06:13:44;101219.38;;;14.63;82.93
64872;BME280;51351;51.450;6.614;2023-08-08T06:16:10;101223.88;;;14.71;82.47
64872;BME280;51351;51.450;6.614;2023-08-08T06:18:36;101221.50;;;14.77;82.14
64872;BME280;51351;51.450;6.614;2023-08-08T06:21:03;101217.94;;;14.86;81.80
64872;BME280;51351;51.450;6.614;2023-08-08T06:23:29;101223.00;;;15.05;81.88
64872;BME280;51351;51.450;6.614;2023-08-08T06:25:55;101220.75;;;15.10;81.03
64872;BME280;51351;51.450;6.614;2023-08-08T06:28:21;101226.31;;;15.07;81.38
64872;BME280;51351;51.450;6.614;2023-08-08T06:30:47;101229.41;;;15.03;81.17
64872;BME280;51351;51.450;6.614;2023-08-08T06:33:13;101236.69;;;15.09;81.40
64872;BME280;51351;51.450;6.614;2023-08-08T06:35:39;101231.63;;;15.15;81.27
64872;BME280;51351;51.450;6.614;2023-08-08T06:38:05;101236.81;;;15.25;81.22
64872;BME280;51351;51.450;6.614;2023-08-08T06:40:31;101232.59;;;15.32;81.10
64872;BME280;51351;51.450;6.614;2023-08-08T06:42:57;101234.34;;;15.49;81.14
64872;BME280;51351;51.450;6.614;2023-08-08T06:45:23;101229.03;;;15.66;80.50
64872;BME280;51351;51.450;6.614;2023-08-08T06:47:50;101228.56;;;15.71;79.91
64872;BME280;51351;51.450;6.614;2023-08-08T06:50:16;101218.81;;;15.71;79.49
64872;BME280;51351;51.450;6.614;2023-08-08T06:52:42;101216.25;;;15.87;79.89
64872;BME280;51351;51.450;6.614;2023-08-08T06:55:09;101230.50;;;16.10;79.02
64872;BME280;51351;51.450;6.614;2023-08-08T06:57:35;101230.88;;;16.31;77.73
64872;BME280;51351;51.450;6.614;2023-08-08T07:00:01;101222.16;;;16.31;77.75
64872;BME280;51351;51.450;6.614;2023-08-08T07:02:30;101225.59;;;16.31;78.13
64872;BME280;51351;51.450;6.614;2023-08-08T07:04:56;101228.16;;;16.57;78.42
64872;BME280;51351;51.450;6.614;2023-08-08T07:07:22;101232.47;;;16.74;76.68
64872;BME280;51351;51.450;6.614;2023-08-08T07:09:48;101228.81;;;17.07;78.13
64872;BME280;51351;51.450;6.614;2023-08-08T07:12:14;101226.00;;;17.09;75.84
64872;BME280;51351;51.450;6.614;2023-08-08T07:14:40;101231.59;;;17.22;76.71
64872;BME280;51351;51.450;6.614;2023-08-08T07:17:07;101222.81;;;17.29;75.67
64872;BME280;51351;51.450;6.614;2023-08-08T07:19:33;101219.72;;;17.26;75.00
64872;BME280;51351;51.450;6.614;2023-08-08T07:21:59;101230.75;;;17.29;75.61
64872;BME280;51351;51.450;6.614;2023-08-08T07:24:25;101217.72;;;17.20;74.95
64872;BME280;51351;51.450;6.614;2023-08-08T07:26:55;101217.53;;;17.37;75.25
64872;BME280;51351;51.450;6.614;2023-08-08T07:29:21;101210.75;;;17.51;72.61
64872;BME280;51351;51.450;6.614;2023-08-08T07:31:47;101214.00;;;17.61;74.02
64872;BME280;51351;51.450;6.614;2023-08-08T07:34:14;101210.25;;;17.55;73.30
64872;BME280;51351;51.450;6.614;2023-08-08T07:36:40;101210.25;;;17.55;73.55
64872;BME280;51351;51.450;6.614;2023-08-08T07:39:06;101203.59;;;17.67;73.41
64872;BME280;51351;51.450;6.614;2023-08-08T07:41:32;101201.75;;;17.76;72.04
64872;BME280;51351;51.450;6.614;2023-08-08T07:43:58;101196.00;;;18.03;72.84
64872;BME280;51351;51.450;6.614;2023-08-08T07:46:25;101191.63;;;18.18;72.44
64872;BME280;51351;51.450;6.614;2023-08-08T07:48:51;101202.03;;;18.19;71.41
64872;BME280;51351;51.450;6.614;2023-08-08T07:51:17;101194.63;;;18.15;70.53
64872;BME280;51351;51.450;6.614;2023-08-08T07:53:43;101198.06;;;18.15;71.00
64872;BME280;51351;51.450;6.614;2023-08-08T07:56:09;101202.28;;;18.02;70.09
64872;BME280;51351;51.450;6.614;2023-08-08T07:58:35;101206.59;;;18.25;70.30
64872;BME280;51351;51.450;6.614;2023-08-08T08:01:01;101199.25;;;18.35;69.97
64872;BME280;51351;51.450;6.614;2023-08-08T08:03:27;101200.25;;;18.42;68.93
64872;BME280;51351;51.450;6.614;2023-08-08T08:05:53;101205.06;;;18.61;68.74
64872;BME280;51351;51.450;6.614;2023-08-08T08:08:19;101200.28;;;18.79;66.93
64872;BME280;51351;51.450;6.614;2023-08-08T08:10:47;101203.84;;;18.86;68.44
64872;BME280;51351;51.450;6.614;2023-08-08T08:13:14;101205.63;;;18.94;68.39
64872;BME280;51351;51.450;6.614;2023-08-08T08:15:40;101197.38;;;18.89;64.77
64872;BME280;51351;51.450;6.614;2023-08-08T08:18:06;101199.25;;;19.18;67.17
64872;BME280;51351;51.450;6.614;2023-08-08T08:20:32;101207.00;;;19.42;65.69
64872;BME280;51351;51.450;6.614;2023-08-08T08:22:58;101192.00;;;19.63;64.30
64872;BME280;51351;51.450;6.614;2023-08-08T08:25:24;101203.31;;;19.72;65.07
64872;BME280;51351;51.450;6.614;2023-08-08T08:27:50;101200.72;;;19.93;63.64
64872;BME280;51351;51.450;6.614;2023-08-08T08:30:16;101197.19;;;20.07;62.61
64872;BME280;51351;51.450;6.614;2023-08-08T08:32:43;101195.00;;;20.10;61.81
64872;BME280;51351;51.450;6.614;2023-08-08T08:35:10;101195.41;;;19.93;62.60
64872;BME280;51351;51.450;6.614;2023-08-08T08:37:38;101204.84;;;19.81;63.47
64872;BME280;51351;51.450;6.614;2023-08-08T08:40:05;101205.13;;;19.86;62.88
64872;BME280;51351;51.450;6.614;2023-08-08T08:42:32;101199.28;;;19.90;62.95
64872;BME280;51351;51.450;6.614;2023-08-08T08:44:58;101192.22;;;19.83;62.20
64872;BME280;51351;51.450;6.614;2023-08-08T08:47:25;101196.72;;;19.68;62.91
64872;BME280;51351;51.450;6.614;2023-08-08T08:49:52;101190.50;;;19.75;62.62
64872;BME280;51351;51.450;6.614;2023-08-08T08:52:18;101197.25;;;19.78;62.35
64872;BME280;51351;51.450;6.614;2023-08-08T08:54:45;101191.69;;;19.73;62.84
64872;BME280;51351;51.450;6.614;2023-08-08T08:57:12;101190.66;;;19.88;62.68
64872;BME280;51351;51.450;6.614;2023-08-08T08:59:38;101189.00;;;20.16;62.07
64872;BME280;51351;51.450;6.614;2023-08-08T09:02:04;101194.31;;;20.37;61.41
64872;BME280;51351;51.450;6.614;2023-08-08T09:04:30;101187.28;;;20.30;61.30
64872;BME280;51351;51.450;6.614;2023-08-08T09:06:57;101191.53;;;20.10;60.96
64872;BME280;51351;51.450;6.614;2023-08-08T09:09:23;101184.25;;;19.97;61.36
64872;BME280;51351;51.450;6.614;2023-08-08T09:11:51;101193.34;;;19.74;61.33
64872;BME280;51351;51.450;6.614;2023-08-08T09:14:22;101192.25;;;19.68;61.40
64872;BME280;51351;51.450;6.614;2023-08-08T09:16:50;101183.03;;;19.35;61.41
64872;BME280;51351;51.450;6.614;2023-08-08T09:19:17;101187.91;;;19.09;61.95
64872;BME280;51351;51.450;6.614;2023-08-08T09:21:46;101187.66;;;19.04;62.39
64872;BME280;51351;51.450;6.614;2023-08-08T09:24:13;101191.22;;;19.11;62.85
64872;BME280;51351;51.450;6.614;2023-08-08T09:26:40;101187.41;;;19.28;61.93
64872;BME280;51351;51.450;6.614;2023-08-08T09:29:06;101196.72;;;19.24;62.37
64872;BME280;51351;51.450;6.614;2023-08-08T09:31:33;101194.50;;;18.98;63.14
64872;BME280;51351;51.450;6.614;2023-08-08T09:34:02;101190.75;;;19.22;62.26
64872;BME280;51351;51.450;6.614;2023-08-08T09:36:28;101190.44;;;19.54;62.44
64872;BME280;51351;51.450;6.614;2023-08-08T09:38:55;101185.84;;;19.77;61.73
64872;BME280;51351;51.450;6.614;2023-08-08T09:41:22;101185.53;;;19.87;62.23
64872;BME280;51351;51.450;6.614;2023-08-08T09:43:49;101186.72;;;19.99;60.75
64872;BME280;51351;51.450;6.614;2023-08-08T09:46:15;101186.81;;;19.91;60.30
64872;BME280;51351;51.450;6.614;2023-08-08T09:48:42;101189.91;;;19.44;59.10
64872;BME280;51351;51.450;6.614;2023-08-08T09:51:09;101198.63;;;19.16;59.15
64872;BME280;51351;51.450;6.614;2023-08-08T09:53:35;101194.97;;;19.17;60.66
64872;BME280;51351;51.450;6.614;2023-08-08T09:56:05;101200.03;;;19.41;60.50
64872;BME280;51351;51.450;6.614;2023-08-08T09:58:31;101197.31;;;19.63;60.02
64872;BME280;51351;51.450;6.614;2023-08-08T10:00:58;101201.75;;;19.77;58.70
64872;BME280;51351;51.450;6.614;2023-08-08T10:03:24;101193.53;;;19.58;58.17
64872;BME280;51351;51.450;6.614;2023-08-08T10:05:52;101197.56;;;19.68;58.82
64872;BME280;51351;51.450;6.614;2023-08-08T10:08:19;101187.78;;;19.54;57.64
64872;BME280;51351;51.450;6.614;2023-08-08T10:10:47;101189.72;;;19.46;58.76
64872;BME280;51351;51.450;6.614;2023-08-08T10:13:25;101187.59;;;19.56;56.19
64872;BME280;51351;51.450;6.614;2023-08-08T10:15:53;101183.66;;;19.66;58.10
64872;BME280;51351;51.450;6.614;2023-08-08T10:18:23;101191.56;;;19.95;57.47
64872;BME280;51351;51.450;6.614;2023-08-08T10:20:50;101195.56;;;20.20;57.11
64872;BME280;51351;51.450;6.614;2023-08-08T10:23:18;101192.84;;;20.35;55.97
64872;BME280;51351;51.450;6.614;2023-08-08T10:25:45;101186.00;;;20.47;55.12
64872;BME280;51351;51.450;6.614;2023-08-08T10:28:14;101184.66;;;20.78;54.60
64872;BME280;51351;51.450;6.614;2023-08-08T10:30:47;101193.22;;;21.23;53.54
64872;BME280;51351;51.450;6.614;2023-08-08T10:33:21;101194.47;;;20.99;52.60
64872;BME280;51351;51.450;6.614;2023-08-08T10:35:56;101194.84;;;20.96;52.87
64872;BME280;51351;51.450;6.614;2023-08-08T10:38:23;101197.41;;;20.62;53.07
64872;BME280;51351;51.450;6.614;2023-08-08T10:40:57;101196.88;;;20.31;53.92
64872;BME280;51351;51.450;6.614;2023-08-08T10:43:28;101206.34;;;19.69;54.07
64872;BME280;51351;51.450;6.614;2023-08-08T10:46:12;101207.91;;;19.49;55.42
64872;BME280;51351;51.450;6.614;2023-08-08T10:48:50;101202.69;;;19.55;55.86
64872;BME280;51351;51.450;6.614;2023-08-08T10:51:16;101196.81;;;19.60;55.65
64872;BME280;51351;51.450;6.614;2023-08-08T10:53:43;101204.25;;;19.50;55.69
64872;BME280;51351;51.450;6.614;2023-08-08T10:56:12;101206.28;;;19.25;56.42
64872;BME280;51351;51.450;6.614;2023-08-08T10:58:40;101211.94;;;19.08;56.88
64872;BME280;51351;51.450;6.614;2023-08-08T11:01:07;101207.00;;;19.19;56.79
64872;BME280;51351;51.450;6.614;2023-08-08T11:03:39;101205.78;;;19.44;55.86
64872;BME280;51351;51.450;6.614;2023-08-08T11:06:06;101190.88;;;19.72;55.80
64872;BME280;51351;51.450;6.614;2023-08-08T11:08:32;101201.28;;;19.88;54.84
64872;BME280;51351;51.450;6.614;2023-08-08T11:10:59;101199.41;;;20.18;54.48
64872;BME280;51351;51.450;6.614;2023-08-08T11:13:26;101197.97;;;20.36;53.91
64872;BME280;51351;51.450;6.614;2023-08-08T11:15:52;101201.63;;;20.35;52.85
64872;BME280;51351;51.450;6.614;2023-08-08T11:18:18;101198.47;;;20.46;52.96
64872;BME280;51351;51.450;6.614;2023-08-08T11:20:44;101199.97;;;20.55;51.74
64872;BME280;51351;51.450;6.614;2023-08-08T11:23:11;101197.56;;;20.81;51.19
64872;BME280;51351;51.450;6.614;2023-08-08T11:25:41;101195.28;;;20.78;51.86
64872;BME280;51351;51.450;6.614;2023-08-08T11:28:11;101183.38;;;20.68;50.39
64872;BME280;51351;51.450;6.614;2023-08-08T11:30:39;101174.88;;;20.79;51.35
64872;BME280;51351;51.450;6.614;2023-08-08T11:33:06;101179.09;;;20.94;50.83
64872;BME280;51351;51.450;6.614;2023-08-08T11:35:33;101181.63;;;21.02;50.65
64872;BME280;51351;51.450;6.614;2023-08-08T11:38:02;101186.19;;;21.43;50.85
64872;BME280;51351;51.450;6.614;2023-08-08T11:40:30;101172.38;;;21.60;50.35
64872;BME280;51351;51.450;6.614;2023-08-08T11:42:57;101177.47;;;21.62;49.64
64872;BME280;51351;51.450;6.614;2023-08-08T11:45:23;101176.41;;;21.56;50.43
64872;BME280;51351;51.450;6.614;2023-08-08T11:47:52;101177.00;;;21.52;50.27
64872;BME280;51351;51.450;6.614;2023-08-08T11:50:20;101174.34;;;21.11;50.23
64872;BME280;51351;51.450;6.614;2023-08-08T11:52:50;101177.56;;;21.06;51.28
64872;BME280;51351;51.450;6.614;2023-08-08T11:55:17;101178.59;;;21.05;51.47
64872;BME280;51351;51.450;6.614;2023-08-08T11:57:48;101179.34;;;20.78;51.96
64872;BME280;51351;51.450;6.614;2023-08-08T12:00:15;101167.94;;;20.78;52.13
64872;BME280;51351;51.450;6.614;2023-08-08T12:02:44;101173.38;;;20.70;51.07
64872;BME280;51351;51.450;6.614;2023-08-08T12:05:13;101172.25;;;20.85;51.88
64872;BME280;51351;51.450;6.614;2023-08-08T12:07:40;101168.28;;;20.96;51.71
64872;BME280;51351;51.450;6.614;2023-08-08T12:10:20;101162.94;;;21.17;50.96
64872;BME280;51351;51.450;6.614;2023-08-08T12:12:52;101162.28;;;21.15;50.30
64872;BME280;51351;51.450;6.614;2023-08-08T12:15:19;101166.31;;;21.04;50.16
64872;BME280;51351;51.450;6.614;2023-08-08T12:17:45;101166.59;;;20.67;50.55
64872;BME280;51351;51.450;6.614;2023-08-08T12:20:12;101171.31;;;20.44;51.84
64872;BME280;51351;51.450;6.614;2023-08-08T12:22:37;101170.56;;;20.29;52.52
64872;BME280;51351;51.450;6.614;2023-08-08T12:25:04;101168.91;;;20.28;52.78
64872;BME280;51351;51.450;6.614;2023-08-08T12:27:30;101150.69;;;20.25;53.76
64872;BME280;51351;51.450;6.614;2023-08-08T12:29:56;101154.19;;;20.26;53.80
64872;BME280;51351;51.450;6.614;2023-08-08T12:32:25;101156.84;;;20.26;54.17
64872;BME280;51351;51.450;6.614;2023-08-08T12:34:52;101155.34;;;20.38;54.11
64872;BME280;51351;51.450;6.614;2023-08-08T12:37:18;101160.50;;;20.25;54.09
64872;BME280;51351;51.450;6.614;2023-08-08T12:39:44;101158.47;;;20.27;54.12
64872;BME280;51351;51.450;6.614;2023-08-08T12:42:10;101162.28;;;20.39;54.38
64872;BME280;51351;51.450;6.614;2023-08-08T12:44:36;101166.94;;;20.58;52.09
64872;BME280;51351;51.450;6.614;2023-08-08T12:47:02;101164.69;;;20.82;51.87
64872;BME280;51351;51.450;6.614;2023-08-08T12:49:28;101167.72;;;21.00;49.52
64872;BME280;51351;51.450;6.614;2023-08-08T12:51:54;101186.03;;;21.23;49.51
64872;BME280;51351;51.450;6.614;2023-08-08T12:54:21;101173.06;;;21.07;48.12